Time;durP1;ratioP1;P1;durP2;ratioP2;P2;SDS_P1;SDS_P2;PMS_P1;PMS_P2;Temp;Humidity;BMP_temperature;BMP_pressure;BME280_temperature;BME280_humidity;BME280_pressure;Samples;Min_cycle;Max_cycle;Signal;HPM_P1;HPM_P2
2022/12/06 00:01:57;;;;;;;;;;;4.70;98.90;;;;;;5062192;28;20001;-78
2022/12/06 00:04:24;;;;;;;;;;;4.70;99.00;;;;;;5063667;28;19982;-78
2022/12/06 00:06:51;;;;;;;;;;;4.70;99.00;;;;;;5061082;28;20069;-78
2022/12/06 00:09:19;;;;;;;;;;;4.70;98.90;;;;;;5057848;28;20063;-79
2022/12/06 00:11:46;;;;;;;;;;;4.70;98.90;;;;;;5061905;28;20099;-78
2022/12/06 00:14:12;;;;;;;;;;;4.70;98.90;;;;;;5062550;28;20029;-78
2022/12/06 00:16:39;;;;;;;;;;;4.70;99.00;;;;;;5061736;28;19991;-78
2022/12/06 00:19:07;;;;;;;;;;;4.70;98.90;;;;;;5061037;28;20402;-78
2022/12/06 00:21:35;;;;;;;;;;;4.70;98.90;;;;;;5062492;28;19975;-79
2022/12/06 00:24:03;;;;;;;;;;;4.70;98.90;;;;;;5064894;28;19975;-77
2022/12/06 00:26:30;;;;;;;;;;;4.70;98.90;;;;;;5060369;28;20641;-79
2022/12/06 00:28:57;;;;;;;;;;;4.60;98.90;;;;;;5061689;28;20018;-79
2022/12/06 00:31:25;;;;;;;;;;;4.70;98.90;;;;;;5062862;28;20033;-78
2022/12/06 00:33:52;;;;;;;;;;;4.70;98.90;;;;;;5065430;28;19980;-78
2022/12/06 00:36:22;;;;;;;;;;;4.70;98.90;;;;;;5064142;28;19975;-79
2022/12/06 00:38:48;;;;;;;;;;;4.70;98.90;;;;;;5061597;28;20110;-79
2022/12/06 00:41:16;;;;;;;;;;;4.70;98.90;;;;;;5061350;28;19983;-79
2022/12/06 00:43:42;;;;;;;;;;;4.70;98.90;;;;;;5060894;28;19990;-78
2022/12/06 00:46:11;;;;;;;;;;;4.70;98.90;;;;;;5061562;28;19992;-78
2022/12/06 00:48:38;;;;;;;;;;;4.70;98.90;;;;;;5061339;28;19975;-78
2022/12/06 00:51:05;;;;;;;;;;;4.70;98.90;;;;;;5060480;28;19986;-78
2022/12/06 00:53:33;;;;;;;;;;;4.70;99.00;;;;;;5061878;28;19979;-78
2022/12/06 00:55:59;;;;;;;;;;;4.70;98.90;;;;;;5062111;28;19975;-78
2022/12/06 00:58:26;;;;;;;;;;;4.70;98.90;;;;;;5061663;28;20768;-78
2022/12/06 01:00:53;;;;;;;;;;;4.70;98.90;;;;;;5064955;28;20024;-78
2022/12/06 01:03:20;;;;;;;;;;;4.70;98.90;;;;;;5065494;28;19980;-79
2022/12/06 01:05:48;;;;;;;;;;;4.70;98.90;;;;;;5063211;28;19984;-78
2022/12/06 01:08:15;;;;;;;;;;;4.70;98.90;;;;;;5063531;28;19979;-78
2022/12/06 01:10:50;;;;;;;;;;;4.70;98.90;;;;;;5066087;28;20291;-80
2022/12/06 01:13:17;;;;;;;;;;;4.70;98.90;;;;;;5069099;28;19975;-78
2022/12/06 01:15:43;;;;;;;;;;;4.70;98.90;;;;;;5064057;28;19991;-79
2022/12/06 01:18:10;;;;;;;;;;;4.80;99.00;;;;;;5063894;28;19979;-77
2022/12/06 01:20:36;;;;;;;;;;;4.80;99.00;;;;;;5062851;28;19988;-78
2022/12/06 01:23:03;;;;;;;;;;;4.70;99.00;;;;;;5065279;28;19986;-78
2022/12/06 01:25:31;;;;;;;;;;;4.80;99.00;;;;;;5066397;28;19979;-77
2022/12/06 01:27:59;;;;;;;;;;;4.70;99.00;;;;;;5061964;28;20014;-79
2022/12/06 01:30:26;;;;;;;;;;;4.70;99.00;;;;;;5056693;28;20007;-78
2022/12/06 01:32:52;;;;;;;;;;;4.70;99.00;;;;;;5062829;28;20350;-78
2022/12/06 01:35:19;;;;;;;;;;;4.70;99.00;;;;;;5062558;28;19999;-79
2022/12/06 01:37:45;;;;;;;;;;;4.80;99.10;;;;;;5063307;28;19983;-79
2022/12/06 01:40:13;;;;;;;;;;;4.80;99.10;;;;;;5064382;28;20003;-79
2022/12/06 01:42:39;;;;;;;;;;;4.80;99.40;;;;;;5066366;28;20409;-79
2022/12/06 01:45:09;;;;;;;;;;;4.70;99.00;;;;;;5065378;28;19975;-79
2022/12/06 01:47:37;;;;;;;;;;;4.70;99.00;;;;;;5067753;28;19980;-79
2022/12/06 01:50:06;;;;;;;;;;;4.80;99.10;;;;;;5066761;28;20374;-79
2022/12/06 01:52:35;;;;;;;;;;;4.70;99.00;;;;;;5066387;28;20002;-79
2022/12/06 01:55:02;;;;;;;;;;;4.70;99.00;;;;;;5065727;28;19983;-78
2022/12/06 01:57:29;;;;;;;;;;;4.70;99.10;;;;;;5064493;28;19982;-78
2022/12/06 01:59:56;;;;;;;;;;;4.70;99.10;;;;;;5064007;28;20000;-77
2022/12/06 02:02:24;;;;;;;;;;;4.70;99.10;;;;;;5063447;28;20074;-78
2022/12/06 02:04:52;;;;;;;;;;;4.70;99.00;;;;;;5064820;28;19995;-77
2022/12/06 02:07:19;;;;;;;;;;;4.80;99.10;;;;;;5064787;28;19976;-78
2022/12/06 02:09:46;;;;;;;;;;;4.70;99.10;;;;;;5062114;28;20003;-79
2022/12/06 02:12:13;;;;;;;;;;;4.70;99.10;;;;;;5063361;28;19975;-78
2022/12/06 02:14:40;;;;;;;;;;;4.80;99.10;;;;;;5063055;28;21040;-78
2022/12/06 02:17:14;;;;;;;;;;;4.70;99.10;;;;;;5063119;28;20384;-78
2022/12/06 02:19:54;;;;;;;;;;;4.80;99.10;;;;;;5062506;28;19994;-78
2022/12/06 02:22:25;;;;;;;;;;;4.80;99.10;;;;;;5064920;28;19975;-79
2022/12/06 02:24:58;;;;;;;;;;;4.70;99.10;;;;;;5063074;28;19986;-78
2022/12/06 02:27:43;;;;;;;;;;;4.80;99.20;;;;;;5062987;28;20442;-78
2022/12/06 02:30:17;;;;;;;;;;;4.80;99.10;;;;;;5061144;28;19987;-79
2022/12/06 02:32:47;;;;;;;;;;;4.80;99.10;;;;;;5066408;28;19980;-77
2022/12/06 02:35:19;;;;;;;;;;;4.80;99.20;;;;;;5064867;28;19972;-80
2022/12/06 02:37:47;;;;;;;;;;;4.70;99.10;;;;;;5063734;28;19994;-78
2022/12/06 02:40:16;;;;;;;;;;;4.80;99.20;;;;;;5064115;28;19995;-79
2022/12/06 02:42:47;;;;;;;;;;;4.80;99.20;;;;;;5065554;28;20170;-78
2022/12/06 02:45:15;;;;;;;;;;;4.70;99.10;;;;;;5066849;28;20092;-79
2022/12/06 02:47:42;;;;;;;;;;;4.80;99.20;;;;;;5064989;28;19976;-77
2022/12/06 02:50:13;;;;;;;;;;;4.70;99.10;;;;;;5068174;28;20005;-79
2022/12/06 02:52:42;;;;;;;;;;;4.80;99.20;;;;;;5066665;28;19979;-79
2022/12/06 02:55:10;;;;;;;;;;;4.80;99.20;;;;;;5064956;28;19983;-78
2022/12/06 02:57:40;;;;;;;;;;;4.70;99.20;;;;;;5063330;28;20028;-77
2022/12/06 03:00:21;;;;;;;;;;;4.80;99.20;;;;;;5063869;28;20018;-78
2022/12/06 03:02:48;;;;;;;;;;;4.80;99.20;;;;;;5066412;28;19975;-78
2022/12/06 03:05:21;;;;;;;;;;;4.70;99.20;;;;;;5066295;28;19982;-79
2022/12/06 03:07:48;;;;;;;;;;;4.80;99.20;;;;;;5066858;28;20074;-78
2022/12/06 03:10:20;;;;;;;;;;;4.80;99.20;;;;;;5062978;28;19987;-80
2022/12/06 03:12:51;;;;;;;;;;;4.80;99.20;;;;;;5063891;28;19985;-79
2022/12/06 03:15:23;;;;;;;;;;;4.80;99.20;;;;;;5059159;28;19976;-78
2022/12/06 03:17:52;;;;;;;;;;;4.80;99.20;;;;;;5065576;28;19995;-79
2022/12/06 03:20:25;;;;;;;;;;;4.80;99.20;;;;;;5061949;28;20007;-79
2022/12/06 03:22:53;;;;;;;;;;;4.80;99.20;;;;;;5061997;28;19980;-78
2022/12/06 03:25:20;;;;;;;;;;;4.80;99.20;;;;;;5060213;28;19980;-79
2022/12/06 03:27:48;;;;;;;;;;;4.80;99.20;;;;;;5055687;28;19979;-78
2022/12/06 03:30:15;;;;;;;;;;;4.80;99.20;;;;;;5058852;28;19992;-78
2022/12/06 03:32:43;;;;;;;;;;;4.70;99.20;;;;;;5063192;28;19991;-78
2022/12/06 03:35:11;;;;;;;;;;;4.80;99.20;;;;;;5065115;28;19975;-77
2022/12/06 03:37:40;;;;;;;;;;;4.80;99.20;;;;;;5065304;28;19976;-79
2022/12/06 03:40:10;;;;;;;;;;;4.80;99.30;;;;;;5063764;28;19995;-79
2022/12/06 03:42:37;;;;;;;;;;;4.80;99.30;;;;;;5064196;28;19979;-79
2022/12/06 03:45:04;;;;;;;;;;;4.80;99.30;;;;;;5062538;28;19976;-78
2022/12/06 03:47:33;;;;;;;;;;;4.80;99.30;;;;;;5064277;28;19991;-79
2022/12/06 03:50:02;;;;;;;;;;;4.80;99.30;;;;;;5062854;28;19992;-79
2022/12/06 03:52:29;;;;;;;;;;;4.80;99.20;;;;;;5064632;28;20662;-78
2022/12/06 03:54:57;;;;;;;;;;;4.80;99.30;;;;;;5064679;28;20486;-78
2022/12/06 03:57:23;;;;;;;;;;;4.80;99.20;;;;;;5059841;28;19980;-76
2022/12/06 03:59:50;;;;;;;;;;;4.80;99.20;;;;;;5062792;28;20003;-78
2022/12/06 04:02:16;;;;;;;;;;;4.80;99.30;;;;;;5051940;28;19995;-78
2022/12/06 04:04:43;;;;;;;;;;;4.80;99.30;;;;;;5064386;28;20549;-78
2022/12/06 04:07:10;;;;;;;;;;;4.80;99.30;;;;;;5061496;28;19983;-79
2022/12/06 04:09:52;;;;;;;;;;;4.80;99.30;;;;;;5062389;28;19992;-77
2022/12/06 04:15:03;;;;;;;;;;;4.80;99.30;;;;;;5059700;28;19981;-80
2022/12/06 04:20:14;;;;;;;;;;;4.80;99.30;;;;;;5061829;28;20045;-78
2022/12/06 04:25:25;;;;;;;;;;;4.80;99.30;;;;;;5061991;28;20001;-78
2022/12/06 04:38:51;;;;;;;;;;;4.80;99.30;;;;;;5066399;28;20014;-78
2022/12/06 04:43:59;;;;;;;;;;;4.80;99.30;;;;;;5064287;28;20109;-78
2022/12/06 04:46:26;;;;;;;;;;;4.80;99.30;;;;;;5061546;28;19995;-79
2022/12/06 04:48:52;;;;;;;;;;;4.80;99.30;;;;;;5067639;28;20553;-78
2022/12/06 04:51:19;;;;;;;;;;;4.80;99.30;;;;;;5065435;28;19983;-78
2022/12/06 04:53:45;;;;;;;;;;;4.80;99.30;;;;;;5062140;28;20589;-78
2022/12/06 04:56:12;;;;;;;;;;;4.80;99.30;;;;;;5067078;28;19972;-78
2022/12/06 04:58:39;;;;;;;;;;;4.80;99.30;;;;;;5066303;28;19979;-78
2022/12/06 05:01:07;;;;;;;;;;;4.80;99.30;;;;;;5066231;28;19999;-78
2022/12/06 05:03:33;;;;;;;;;;;4.80;99.40;;;;;;5068148;28;21311;-78
2022/12/06 05:06:00;;;;;;;;;;;4.80;99.30;;;;;;5069235;28;19975;-78
2022/12/06 05:08:26;;;;;;;;;;;4.80;99.30;;;;;;5066704;28;19975;-78
2022/12/06 05:10:53;;;;;;;;;;;4.80;99.30;;;;;;5069798;28;19986;-78
2022/12/06 05:13:20;;;;;;;;;;;4.80;99.30;;;;;;5066923;28;19982;-77
2022/12/06 05:15:50;;;;;;;;;;;4.80;99.30;;;;;;5068078;28;20523;-77
2022/12/06 05:18:18;;;;;;;;;;;4.80;99.40;;;;;;5065689;28;20453;-78
2022/12/06 05:20:44;;;;;;;;;;;4.80;99.30;;;;;;5065878;28;19999;-78
2022/12/06 05:23:11;;;;;;;;;;;4.80;99.40;;;;;;5061841;28;19983;-78
2022/12/06 05:25:38;;;;;;;;;;;4.80;99.40;;;;;;5065358;28;19976;-77
2022/12/06 05:28:04;;;;;;;;;;;4.80;99.30;;;;;;5069783;28;19976;-79
2022/12/06 05:30:31;;;;;;;;;;;4.80;99.40;;;;;;5062460;28;20052;-77
2022/12/06 05:32:58;;;;;;;;;;;4.80;99.40;;;;;;5066460;28;19975;-78
2022/12/06 05:35:26;;;;;;;;;;;4.80;99.40;;;;;;5063501;28;19975;-77
2022/12/06 05:37:52;;;;;;;;;;;4.80;99.40;;;;;;5061268;28;19976;-78
2022/12/06 05:40:19;;;;;;;;;;;4.80;99.40;;;;;;5067169;28;19995;-78
2022/12/06 05:42:45;;;;;;;;;;;4.80;99.40;;;;;;5065578;28;19986;-77
2022/12/06 05:45:12;;;;;;;;;;;4.80;99.40;;;;;;5061148;28;20372;-78
2022/12/06 05:47:39;;;;;;;;;;;4.80;99.40;;;;;;5064659;28;19982;-79
2022/12/06 05:50:07;;;;;;;;;;;4.80;99.40;;;;;;5062132;28;20031;-78
2022/12/06 05:52:35;;;;;;;;;;;4.80;99.40;;;;;;5055070;28;20014;-78
2022/12/06 05:55:01;;;;;;;;;;;4.80;99.40;;;;;;5061303;28;19979;-78
2022/12/06 05:57:28;;;;;;;;;;;4.80;99.40;;;;;;5062281;28;20443;-78
2022/12/06 05:59:54;;;;;;;;;;;4.80;99.40;;;;;;5066651;28;20495;-78
2022/12/06 06:02:21;;;;;;;;;;;4.80;99.40;;;;;;5065694;28;20370;-78
2022/12/06 06:04:47;;;;;;;;;;;4.80;99.40;;;;;;5066601;28;19998;-79
2022/12/06 06:07:14;;;;;;;;;;;4.80;99.40;;;;;;5066705;28;19975;-79
2022/12/06 06:09:42;;;;;;;;;;;4.80;99.50;;;;;;5062460;28;20000;-78
2022/12/06 06:12:08;;;;;;;;;;;4.80;99.50;;;;;;5066757;28;19972;-77
2022/12/06 06:14:35;;;;;;;;;;;4.80;99.50;;;;;;5066250;28;19979;-78
2022/12/06 06:17:02;;;;;;;;;;;4.80;99.50;;;;;;5061161;28;19991;-79
2022/12/06 06:19:28;;;;;;;;;;;4.80;99.50;;;;;;5065983;28;19991;-81
2022/12/06 06:21:55;;;;;;;;;;;4.80;99.50;;;;;;5065717;28;19976;-80
2022/12/06 06:24:22;;;;;;;;;;;4.80;99.50;;;;;;5065549;28;19987;-77
2022/12/06 06:26:50;;;;;;;;;;;4.80;99.50;;;;;;5062421;28;20033;-79
2022/12/06 06:29:17;;;;;;;;;;;4.80;99.50;;;;;;5067319;28;20093;-79
2022/12/06 06:31:43;;;;;;;;;;;4.80;99.50;;;;;;5066187;28;19998;-79
2022/12/06 06:34:10;;;;;;;;;;;4.80;99.50;;;;;;5067965;28;19976;-79
2022/12/06 06:36:36;;;;;;;;;;;4.80;99.50;;;;;;5064109;28;19975;-78
2022/12/06 06:39:03;;;;;;;;;;;4.80;99.50;;;;;;5065520;28;19991;-76
2022/12/06 06:41:29;;;;;;;;;;;4.80;99.50;;;;;;5066857;28;19988;-78
2022/12/06 06:43:57;;;;;;;;;;;4.80;99.50;;;;;;5064358;28;20473;-80
2022/12/06 06:46:24;;;;;;;;;;;4.80;99.50;;;;;;5060635;28;20038;-74
2022/12/06 06:48:51;;;;;;;;;;;4.80;99.50;;;;;;5060951;28;20049;-74
2022/12/06 06:51:18;;;;;;;;;;;4.80;99.50;;;;;;5060736;28;20706;-74
2022/12/06 06:53:44;;;;;;;;;;;4.80;99.50;;;;;;5059067;28;19998;-73
2022/12/06 06:56:11;;;;;;;;;;;4.80;99.50;;;;;;5059606;28;19998;-74
2022/12/06 06:58:37;;;;;;;;;;;4.80;99.50;;;;;;5058048;28;20079;-75
2022/12/06 07:01:06;;;;;;;;;;;4.80;99.50;;;;;;5062387;28;20002;-73
2022/12/06 07:03:33;;;;;;;;;;;4.80;99.50;;;;;;5063560;28;19975;-73
2022/12/06 07:06:00;;;;;;;;;;;4.80;99.50;;;;;;5061461;28;20074;-74
2022/12/06 07:08:28;;;;;;;;;;;4.80;99.60;;;;;;5055079;28;19987;-73
2022/12/06 07:10:55;;;;;;;;;;;4.80;99.50;;;;;;5059632;28;19976;-74
2022/12/06 07:13:23;;;;;;;;;;;4.80;99.60;;;;;;5056712;28;20325;-73
2022/12/06 07:15:49;;;;;;;;;;;4.80;99.60;;;;;;5059446;28;19995;-74
2022/12/06 07:18:18;;;;;;;;;;;4.80;99.60;;;;;;5061015;28;19989;-74
2022/12/06 07:20:45;;;;;;;;;;;4.80;99.60;;;;;;5061538;28;19996;-74
2022/12/06 07:23:12;;;;;;;;;;;4.80;99.60;;;;;;5060309;28;19972;-73
2022/12/06 07:25:38;;;;;;;;;;;4.80;99.60;;;;;;5061385;28;19978;-74
2022/12/06 07:28:05;;;;;;;;;;;4.80;99.60;;;;;;5060154;28;19982;-73
2022/12/06 07:30:32;;;;;;;;;;;4.80;99.60;;;;;;5056679;28;20049;-77
2022/12/06 07:32:58;;;;;;;;;;;4.80;99.60;;;;;;5059438;28;19975;-77
2022/12/06 07:35:26;;;;;;;;;;;4.80;99.60;;;;;;5060375;28;19982;-75
2022/12/06 07:37:53;;;;;;;;;;;4.80;99.60;;;;;;5058468;28;20022;-77
2022/12/06 07:40:20;;;;;;;;;;;4.80;99.60;;;;;;5058958;28;19995;-77
2022/12/06 07:45:31;;;;;;;;;;;4.80;99.60;;;;;;5058780;28;20544;-77
2022/12/06 07:47:57;;;;;;;;;;;4.90;99.70;;;;;;5056194;28;19989;-77
2022/12/06 07:50:24;;;;;;;;;;;4.80;99.60;;;;;;5055913;28;19991;-78
2022/12/06 07:52:52;;;;;;;;;;;4.80;99.70;;;;;;5056881;28;19975;-77
2022/12/06 07:55:18;;;;;;;;;;;4.80;99.70;;;;;;5061932;28;19983;-77
2022/12/06 07:57:45;;;;;;;;;;;4.80;99.70;;;;;;5067002;28;20887;-77
2022/12/06 08:00:13;;;;;;;;;;;4.80;99.70;;;;;;5056617;28;19988;-76
2022/12/06 08:02:39;;;;;;;;;;;4.80;99.70;;;;;;5056082;28;19979;-77
2022/12/06 08:05:06;;;;;;;;;;;4.80;99.70;;;;;;5054079;28;19972;-77
2022/12/06 08:07:33;;;;;;;;;;;4.80;99.70;;;;;;5056939;28;19976;-77
2022/12/06 08:10:01;;;;;;;;;;;4.80;99.70;;;;;;5054951;28;19992;-77
2022/12/06 08:12:29;;;;;;;;;;;4.80;99.70;;;;;;5057038;28;19972;-76
2022/12/06 08:14:56;;;;;;;;;;;4.80;99.70;;;;;;5058080;28;19987;-76
2022/12/06 08:17:22;;;;;;;;;;;4.80;99.70;;;;;;5057158;28;19999;-76
2022/12/06 08:19:50;;;;;;;;;;;4.80;99.70;;;;;;5053024;28;19995;-77
2022/12/06 08:22:16;;;;;;;;;;;4.80;99.70;;;;;;5052734;28;20019;-76
2022/12/06 08:24:43;;;;;;;;;;;4.80;99.70;;;;;;5054461;28;19971;-76
2022/12/06 08:27:11;;;;;;;;;;;4.80;99.70;;;;;;5054563;28;19975;-77
2022/12/06 08:29:38;;;;;;;;;;;4.90;99.70;;;;;;5055830;28;19999;-76
2022/12/06 08:32:04;;;;;;;;;;;4.80;99.70;;;;;;5051666;28;20002;-77
2022/12/06 08:34:31;;;;;;;;;;;4.90;99.80;;;;;;5059618;28;19979;-76
2022/12/06 08:36:58;;;;;;;;;;;4.90;99.80;;;;;;5052124;28;19980;-76
2022/12/06 08:39:27;;;;;;;;;;;4.90;99.80;;;;;;5057777;28;20003;-76
2022/12/06 08:41:57;;;;;;;;;;;4.80;99.70;;;;;;5057187;28;19995;-77
2022/12/06 08:44:26;;;;;;;;;;;4.80;99.70;;;;;;5055794;28;19976;-76
2022/12/06 08:46:54;;;;;;;;;;;4.80;99.70;;;;;;5055209;28;20379;-76
2022/12/06 08:49:21;;;;;;;;;;;4.90;99.80;;;;;;5059674;28;19999;-76
2022/12/06 08:51:48;;;;;;;;;;;4.80;99.70;;;;;;5051059;28;20083;-77
2022/12/06 08:54:15;;;;;;;;;;;4.80;99.70;;;;;;5054554;28;20616;-76
2022/12/06 08:56:42;;;;;;;;;;;4.90;99.70;;;;;;5055764;28;19975;-76
2022/12/06 08:59:09;;;;;;;;;;;4.80;99.70;;;;;;5049971;28;19993;-76
2022/12/06 09:01:37;;;;;;;;;;;4.90;99.70;;;;;;5052693;28;20006;-76
2022/12/06 09:04:04;;;;;;;;;;;4.90;99.70;;;;;;5053855;28;19976;-76
2022/12/06 09:06:31;;;;;;;;;;;4.80;99.70;;;;;;5055001;28;20434;-76
2022/12/06 09:08:58;;;;;;;;;;;4.90;99.70;;;;;;5054442;28;19999;-76
2022/12/06 09:11:25;;;;;;;;;;;4.90;99.70;;;;;;5054837;28;19975;-77
2022/12/06 09:13:51;;;;;;;;;;;4.90;99.70;;;;;;5050844;28;19976;-77
2022/12/06 09:16:20;;;;;;;;;;;4.90;99.70;;;;;;5049162;28;20066;-77
2022/12/06 09:18:48;;;;;;;;;;;4.90;99.70;;;;;;5059845;28;19990;-77
2022/12/06 09:21:16;;;;;;;;;;;4.80;99.70;;;;;;5059948;28;20363;-77
2022/12/06 09:23:42;;;;;;;;;;;4.90;99.70;;;;;;5062093;28;19975;-77
2022/12/06 09:26:09;;;;;;;;;;;4.90;99.70;;;;;;5059927;28;19975;-77
2022/12/06 09:28:37;;;;;;;;;;;4.80;99.70;;;;;;5060824;28;19982;-75
2022/12/06 09:31:05;;;;;;;;;;;4.80;99.70;;;;;;5058410;28;19991;-76
2022/12/06 09:33:31;;;;;;;;;;;4.90;99.70;;;;;;5061330;28;20082;-77
2022/12/06 09:36:01;;;;;;;;;;;4.90;99.70;;;;;;5059984;28;19986;-77
2022/12/06 09:38:29;;;;;;;;;;;4.80;99.60;;;;;;5062502;28;19987;-76
2022/12/06 09:41:01;;;;;;;;;;;4.90;99.70;;;;;;5058906;28;20003;-77
2022/12/06 09:43:35;;;;;;;;;;;4.90;99.70;;;;;;5061396;28;19984;-78
2022/12/06 09:46:09;;;;;;;;;;;4.90;99.70;;;;;;5061243;28;19995;-78
2022/12/06 09:48:48;;;;;;;;;;;4.90;99.70;;;;;;5063209;28;19978;-77
2022/12/06 09:51:21;;;;;;;;;;;4.90;99.70;;;;;;5069691;28;19982;-79
2022/12/06 09:53:56;;;;;;;;;;;4.90;99.70;;;;;;5061886;28;19975;-77
2022/12/06 09:56:25;;;;;;;;;;;4.90;99.70;;;;;;5052497;28;19978;-77
2022/12/06 09:59:06;;;;;;;;;;;4.90;99.70;;;;;;5052758;28;20177;-76
2022/12/06 10:01:42;;;;;;;;;;;4.90;99.70;;;;;;5058571;28;20006;-78
2022/12/06 10:04:21;;;;;;;;;;;5.00;99.70;;;;;;5064550;28;19986;-75
2022/12/06 10:06:51;;;;;;;;;;;4.90;99.60;;;;;;5063277;28;19994;-79
2022/12/06 10:09:28;;;;;;;;;;;4.90;99.70;;;;;;5059756;28;19991;-77
2022/12/06 10:12:07;;;;;;;;;;;4.90;99.70;;;;;;5059527;28;19983;-77
2022/12/06 10:14:42;;;;;;;;;;;5.00;99.70;;;;;;5052348;28;19975;-77
2022/12/06 10:17:12;;;;;;;;;;;4.90;99.60;;;;;;5053400;28;19994;-76
2022/12/06 10:19:46;;;;;;;;;;;4.90;99.60;;;;;;5054154;28;19999;-76
2022/12/06 10:22:18;;;;;;;;;;;4.90;99.60;;;;;;5056650;28;19987;-76
2022/12/06 10:24:51;;;;;;;;;;;4.90;99.60;;;;;;5050324;28;19975;-77
2022/12/06 10:27:22;;;;;;;;;;;5.00;99.60;;;;;;5052753;28;20311;-77
2022/12/06 10:29:54;;;;;;;;;;;5.00;99.90;;;;;;5054513;28;20328;-76
2022/12/06 10:32:27;;;;;;;;;;;4.90;99.60;;;;;;5052872;28;19991;-77
2022/12/06 10:34:55;;;;;;;;;;;5.00;99.60;;;;;;5057990;28;20021;-76
2022/12/06 10:37:31;;;;;;;;;;;5.00;99.60;;;;;;5059572;28;19994;-75
2022/12/06 10:40:02;;;;;;;;;;;5.00;99.60;;;;;;5059220;28;19987;-76
2022/12/06 10:42:31;;;;;;;;;;;5.00;99.60;;;;;;5061123;28;19995;-76
2022/12/06 10:44:59;;;;;;;;;;;5.00;99.60;;;;;;5060653;28;19979;-77
2022/12/06 10:47:27;;;;;;;;;;;5.00;99.90;;;;;;5058488;28;21409;-77
2022/12/06 10:49:55;;;;;;;;;;;5.00;99.50;;;;;;5058739;28;19988;-77
2022/12/06 10:52:25;;;;;;;;;;;5.00;99.50;;;;;;5065071;28;19971;-77
2022/12/06 10:54:57;;;;;;;;;;;5.00;99.50;;;;;;5053754;28;19975;-77
2022/12/06 10:57:28;;;;;;;;;;;5.00;99.50;;;;;;5061035;28;19971;-77
2022/12/06 10:59:57;;;;;;;;;;;5.00;99.50;;;;;;5064589;28;19991;-78
2022/12/06 11:02:27;;;;;;;;;;;5.00;99.50;;;;;;5063889;28;20002;-77
2022/12/06 11:04:57;;;;;;;;;;;5.00;99.50;;;;;;5061721;28;20033;-78
2022/12/06 11:07:26;;;;;;;;;;;5.00;99.40;;;;;;5065431;28;20066;-77
2022/12/06 11:09:55;;;;;;;;;;;5.10;99.40;;;;;;5062826;28;20000;-77
2022/12/06 11:12:25;;;;;;;;;;;5.00;99.40;;;;;;5063978;28;19971;-78
2022/12/06 11:14:52;;;;;;;;;;;5.10;99.40;;;;;;5061397;28;19990;-77
2022/12/06 11:17:21;;;;;;;;;;;5.10;99.40;;;;;;5053567;28;19995;-77
2022/12/06 11:19:50;;;;;;;;;;;5.10;99.40;;;;;;5063164;28;19995;-77
2022/12/06 11:22:22;;;;;;;;;;;5.10;99.40;;;;;;5059078;28;19991;-77
2022/12/06 11:24:50;;;;;;;;;;;5.10;99.40;;;;;;5062679;28;19987;-77
2022/12/06 11:27:21;;;;;;;;;;;5.10;99.30;;;;;;5063413;28;19982;-76
2022/12/06 11:29:49;;;;;;;;;;;5.10;99.30;;;;;;5058034;28;19996;-75
2022/12/06 11:32:16;;;;;;;;;;;5.10;99.30;;;;;;5063296;28;20761;-78
2022/12/06 11:34:44;;;;;;;;;;;5.10;99.30;;;;;;5063330;28;19980;-77
2022/12/06 11:37:15;;;;;;;;;;;5.10;99.30;;;;;;5059092;28;20001;-78
2022/12/06 11:39:41;;;;;;;;;;;5.10;99.30;;;;;;5056884;28;19992;-77
2022/12/06 11:42:08;;;;;;;;;;;5.20;99.30;;;;;;5062179;28;19996;-78
2022/12/06 11:44:41;;;;;;;;;;;5.10;99.20;;;;;;5055258;28;19986;-77
2022/12/06 11:47:13;;;;;;;;;;;5.10;99.20;;;;;;5047008;28;19991;-77
2022/12/06 11:49:41;;;;;;;;;;;5.10;99.20;;;;;;5057864;28;20479;-77
2022/12/06 11:52:10;;;;;;;;;;;5.20;99.20;;;;;;5061742;28;19986;-77
2022/12/06 11:54:38;;;;;;;;;;;5.20;99.10;;;;;;5051817;28;19975;-77
2022/12/06 11:57:13;;;;;;;;;;;5.20;99.10;;;;;;5059419;28;20119;-76
2022/12/06 12:00:00;;;;;;;;;;;5.20;99.10;;;;;;5062116;28;19995;-77
2022/12/06 12:02:31;;;;;;;;;;;5.20;99.00;;;;;;5057744;28;20002;-77
2022/12/06 12:05:07;;;;;;;;;;;5.20;99.00;;;;;;5059232;28;19976;-76
2022/12/06 12:07:35;;;;;;;;;;;5.20;99.00;;;;;;5058473;28;20285;-77
2022/12/06 12:10:03;;;;;;;;;;;5.20;99.00;;;;;;5057500;28;20340;-78
2022/12/06 12:15:18;;;;;;;;;;;5.20;98.90;;;;;;5049940;28;19977;-77
2022/12/06 12:17:46;;;;;;;;;;;5.20;98.90;;;;;;5052129;28;19979;-77
2022/12/06 12:20:20;;;;;;;;;;;5.20;98.90;;;;;;5059276;28;20002;-78
2022/12/06 12:22:51;;;;;;;;;;;5.20;98.90;;;;;;5059561;28;20035;-78
2022/12/06 12:25:21;;;;;;;;;;;5.30;98.90;;;;;;5056105;28;19975;-77
2022/12/06 12:27:49;;;;;;;;;;;5.20;98.90;;;;;;5058050;28;19986;-77
2022/12/06 12:30:18;;;;;;;;;;;5.30;98.90;;;;;;5057999;28;20007;-78
2022/12/06 12:32:45;;;;;;;;;;;5.20;98.80;;;;;;5061196;28;19975;-77
2022/12/06 12:35:24;;;;;;;;;;;5.20;98.80;;;;;;5062695;28;19976;-77
2022/12/06 12:37:54;;;;;;;;;;;5.30;98.80;;;;;;5067693;28;19983;-78
2022/12/06 12:40:22;;;;;;;;;;;5.30;98.80;;;;;;5067181;28;19987;-77
2022/12/06 12:42:56;;;;;;;;;;;5.30;98.70;;;;;;5063979;28;20491;-77
2022/12/06 12:45:25;;;;;;;;;;;5.30;98.70;;;;;;5060876;28;19975;-78
2022/12/06 12:47:59;;;;;;;;;;;5.30;98.70;;;;;;5067106;28;20026;-77
2022/12/06 12:50:26;;;;;;;;;;;5.30;98.70;;;;;;5063791;28;19995;-78
2022/12/06 12:52:53;;;;;;;;;;;5.30;98.70;;;;;;5064752;28;19979;-78
2022/12/06 12:55:21;;;;;;;;;;;5.30;98.60;;;;;;5065726;28;19976;-79
2022/12/06 12:57:49;;;;;;;;;;;5.30;98.60;;;;;;5072812;28;20371;-78
2022/12/06 13:00:16;;;;;;;;;;;5.30;98.60;;;;;;5068714;28;20836;-78
2022/12/06 13:02:44;;;;;;;;;;;5.40;98.70;;;;;;5050912;28;19991;-77
2022/12/06 13:05:15;;;;;;;;;;;5.30;98.60;;;;;;5069657;28;19986;-78
2022/12/06 13:07:42;;;;;;;;;;;5.40;98.60;;;;;;5063277;28;19979;-76
2022/12/06 13:10:16;;;;;;;;;;;5.40;98.60;;;;;;5059342;28;19991;-78
2022/12/06 13:12:44;;;;;;;;;;;5.40;98.50;;;;;;5066069;28;20014;-77
2022/12/06 13:15:14;;;;;;;;;;;5.40;98.80;;;;;;5060010;28;19984;-78
2022/12/06 13:17:42;;;;;;;;;;;5.40;98.50;;;;;;5061764;28;19980;-77
2022/12/06 13:20:19;;;;;;;;;;;5.40;98.50;;;;;;5062774;28;19991;-74
2022/12/06 13:22:46;;;;;;;;;;;5.40;98.50;;;;;;5056430;28;20045;-75
2022/12/06 13:25:12;;;;;;;;;;;5.40;98.50;;;;;;5058334;28;19975;-75
2022/12/06 13:27:41;;;;;;;;;;;5.50;98.50;;;;;;5059420;28;19975;-78
2022/12/06 13:30:12;;;;;;;;;;;5.40;98.50;;;;;;5057246;28;20003;-76
2022/12/06 13:32:40;;;;;;;;;;;5.40;98.50;;;;;;5061221;28;19976;-76
2022/12/06 13:35:13;;;;;;;;;;;5.40;98.50;;;;;;5059984;28;20010;-75
2022/12/06 13:37:45;;;;;;;;;;;5.40;98.50;;;;;;5060391;28;20400;-77
2022/12/06 13:40:31;;;;;;;;;;;5.50;98.50;;;;;;5060598;28;20584;-77
2022/12/06 13:42:58;;;;;;;;;;;5.40;98.40;;;;;;5061561;28;20047;-77
2022/12/06 13:45:37;;;;;;;;;;;5.50;98.50;;;;;;5057096;28;19982;-77
2022/12/06 13:48:03;;;;;;;;;;;5.40;98.40;;;;;;5061909;28;19986;-77
2022/12/06 13:50:51;;;;;;;;;;;5.40;98.70;;;;;;5060821;28;19995;-77
2022/12/06 13:53:20;;;;;;;;;;;5.50;98.40;;;;;;5056066;28;19987;-77
2022/12/06 13:55:54;;;;;;;;;;;5.50;98.40;;;;;;5059559;28;20398;-77
2022/12/06 13:58:39;;;;;;;;;;;5.50;98.40;;;;;;5057524;28;19975;-76
2022/12/06 14:01:31;;;;;;;;;;;5.50;98.40;;;;;;5058524;28;19991;-77
2022/12/06 14:03:59;;;;;;;;;;;5.50;98.40;;;;;;5062280;28;20634;-77
2022/12/06 14:06:41;;;;;;;;;;;5.50;98.30;;;;;;5052495;28;19975;-77
2022/12/06 14:09:10;;;;;;;;;;;5.50;98.30;;;;;;5060324;28;20111;-77
2022/12/06 14:11:36;;;;;;;;;;;5.50;98.30;;;;;;5059151;28;19975;-75
2022/12/06 14:14:07;;;;;;;;;;;5.50;98.30;;;;;;5058686;28;19983;-76
2022/12/06 14:16:35;;;;;;;;;;;5.50;98.30;;;;;;5059633;28;19999;-76
2022/12/06 14:19:03;;;;;;;;;;;5.50;98.60;;;;;;5059682;28;19995;-77
2022/12/06 14:21:34;;;;;;;;;;;5.50;98.30;;;;;;5057942;28;19986;-76
2022/12/06 14:24:01;;;;;;;;;;;5.50;98.30;;;;;;5054803;28;19983;-76
2022/12/06 14:26:31;;;;;;;;;;;5.50;98.30;;;;;;5054812;28;20014;-75
2022/12/06 14:28:58;;;;;;;;;;;5.50;98.30;;;;;;5057482;28;20005;-75
2022/12/06 14:31:27;;;;;;;;;;;5.50;98.40;;;;;;5056011;28;20709;-72
2022/12/06 14:33:55;;;;;;;;;;;5.50;98.30;;;;;;5064410;28;19975;-74
2022/12/06 14:36:23;;;;;;;;;;;5.50;98.30;;;;;;5063735;28;19975;-74
2022/12/06 14:38:51;;;;;;;;;;;5.50;98.40;;;;;;5062831;28;20007;-73
2022/12/06 14:44:13;;;;;;;;;;;5.50;98.40;;;;;;5051739;28;19998;-75
2022/12/06 14:46:40;;;;;;;;;;;5.50;98.40;;;;;;5056116;28;20517;-73
2022/12/06 14:51:53;;;;;;;;;;;5.60;98.40;;;;;;5060268;28;19998;-76
2022/12/06 14:54:31;;;;;;;;;;;5.60;98.40;;;;;;5059594;28;19976;-73
2022/12/06 14:56:58;;;;;;;;;;;5.60;98.50;;;;;;5058783;28;19976;-75
2022/12/06 14:59:26;;;;;;;;;;;5.60;98.40;;;;;;5060838;28;19991;-75
2022/12/06 15:01:55;;;;;;;;;;;5.60;98.50;;;;;;5055747;28;19986;-75
2022/12/06 15:04:26;;;;;;;;;;;5.60;98.40;;;;;;5059027;28;20551;-76
2022/12/06 15:06:53;;;;;;;;;;;5.60;98.00;;;;;;5058261;28;19982;-75
2022/12/06 15:09:20;;;;;;;;;;;5.50;97.90;;;;;;5059607;28;20002;-75
2022/12/06 15:14:47;;;;;;;;;;;5.50;97.90;;;;;;5056583;28;20192;-75
2022/12/06 15:17:15;;;;;;;;;;;5.50;98.00;;;;;;5055627;28;20019;-75